createdAt,value
2023-05-05T00:00:22.962Z,55.12
2023-05-05T00:03:26.348Z,54.82
2023-05-05T00:06:31.298Z,55.13
2023-05-05T00:09:33.936Z,55.61
2023-05-05T00:12:36.522Z,55.77
2023-05-05T00:15:39.370Z,56.20
2023-05-05T00:18:42.014Z,56.85
2023-05-05T00:21:45.907Z,56.85
2023-05-05T00:24:48.415Z,57.09
2023-05-05T00:27:51.044Z,57.19
2023-05-05T00:30:53.610Z,57.72
2023-05-05T00:33:56.722Z,57.66
2023-05-05T00:37:00.598Z,58.31
2023-05-05T00:40:03.366Z,58.80
2023-05-05T00:43:06.101Z,58.88
2023-05-05T00:46:16.071Z,58.80
2023-05-05T00:49:18.757Z,58.66
2023-05-05T00:52:22.980Z,59.09
2023-05-05T00:55:26.133Z,59.23
2023-05-05T00:58:29.242Z,59.45
2023-05-05T01:01:31.866Z,59.67
2023-05-05T01:04:34.524Z,59.47
2023-05-05T01:07:45.825Z,59.30
2023-05-05T01:10:53.504Z,59.65
2023-05-05T01:14:03.620Z,59.72
2023-05-05T01:17:13.904Z,60.33
2023-05-05T01:20:22.154Z,60.41
2023-05-05T01:23:38.422Z,60.60
2023-05-05T01:26:53.837Z,61.34
2023-05-05T01:30:07.060Z,61.59
2023-05-05T01:33:12.720Z,61.79
2023-05-05T01:36:22.921Z,61.51
2023-05-05T01:39:29.612Z,61.80
2023-05-05T01:42:33.583Z,62.51
2023-05-05T01:45:39.403Z,62.93
2023-05-05T01:48:43.818Z,63.25
2023-05-05T01:51:47.449Z,62.73
2023-05-05T01:54:51.150Z,62.73
2023-05-05T01:57:54.302Z,62.39
2023-05-05T02:00:58.749Z,62.02
2023-05-05T02:04:03.086Z,62.02
2023-05-05T02:07:06.053Z,62.18
2023-05-05T02:10:09.558Z,62.56
2023-05-05T02:13:13.440Z,62.52
2023-05-05T02:16:16.463Z,62.01
2023-05-05T02:19:21.100Z,61.98
2023-05-05T02:22:23.653Z,62.77
2023-05-05T02:25:27.475Z,62.58
2023-05-05T02:28:35.014Z,63.00
2023-05-05T02:31:40.610Z,63.98
2023-05-05T02:34:47.409Z,64.58
2023-05-05T02:37:52.451Z,65.23
2023-05-05T02:40:56.323Z,65.54
2023-05-05T02:43:59.817Z,66.04
2023-05-05T02:47:03.735Z,66.39
2023-05-05T02:50:09.663Z,66.11
2023-05-05T02:53:12.508Z,66.36
2023-05-05T02:56:22.249Z,65.67
2023-05-05T02:59:32.438Z,65.36
2023-05-05T03:02:42.664Z,65.31
2023-05-05T03:05:51.392Z,65.44
2023-05-05T03:08:57.695Z,64.17
2023-05-05T03:12:02.260Z,63.67
2023-05-05T03:15:06.214Z,64.06
2023-05-05T03:18:10.521Z,63.70
2023-05-05T03:21:14.637Z,63.70
2023-05-05T03:24:18.539Z,63.80
2023-05-05T03:27:21.402Z,63.72
2023-05-05T03:30:24.439Z,63.68
2023-05-05T03:33:26.994Z,63.51
2023-05-05T03:36:31.859Z,63.67
2023-05-05T03:39:34.449Z,63.70
2023-05-05T03:42:37.064Z,63.71
2023-05-05T03:45:39.650Z,63.40
2023-05-05T03:48:42.824Z,63.48
2023-05-05T03:51:47.229Z,63.31
2023-05-05T03:54:50.969Z,62.98
2023-05-05T03:57:53.513Z,62.90
2023-05-05T04:00:56.693Z,62.77
2023-05-05T04:03:59.381Z,62.59
2023-05-05T04:07:03.880Z,62.34
2023-05-05T04:10:08.108Z,62.50
2023-05-05T04:13:10.958Z,61.62
2023-05-05T04:16:13.880Z,61.04
2023-05-05T04:19:16.626Z,60.01
2023-05-05T04:22:20.510Z,59.95
2023-05-05T04:25:23.190Z,60.32
2023-05-05T04:28:25.914Z,60.07
2023-05-05T04:31:29.108Z,60.26
2023-05-05T04:34:31.618Z,59.83
2023-05-05T04:37:35.726Z,59.36
2023-05-05T04:40:40.128Z,59.48
2023-05-05T04:43:42.687Z,59.17
2023-05-05T04:46:45.538Z,58.55
2023-05-05T04:49:48.188Z,57.87
2023-05-05T04:52:52.800Z,57.11
2023-05-05T04:55:55.492Z,57.29
2023-05-05T04:58:58.025Z,56.57
2023-05-05T05:02:00.554Z,56.70
2023-05-05T05:05:03.313Z,56.69
2023-05-05T05:08:07.539Z,56.01
2023-05-05T05:11:10.052Z,55.44
2023-05-05T05:14:12.605Z,54.94
2023-05-05T05:17:15.168Z,55.02
2023-05-05T05:20:17.658Z,54.65
2023-05-05T05:23:21.668Z,55.22
2023-05-05T05:26:24.225Z,55.28
2023-05-05T05:29:27.058Z,55.02
2023-05-05T05:32:29.807Z,54.48
2023-05-05T05:35:32.529Z,54.21
2023-05-05T05:38:36.751Z,53.90
2023-05-05T05:41:39.230Z,53.84
2023-05-05T05:44:41.996Z,54.06
2023-05-05T05:47:44.505Z,54.54
2023-05-05T05:50:47.168Z,54.71
2023-05-05T05:53:51.844Z,54.31
2023-05-05T05:56:54.450Z,52.83
2023-05-05T05:59:59.219Z,52.04
2023-05-05T06:03:03.136Z,50.82
2023-05-05T06:06:05.982Z,49.78
2023-05-05T06:09:09.906Z,49.54
2023-05-05T06:12:12.442Z,49.19
2023-05-05T06:15:15.275Z,49.49
2023-05-05T06:18:18.043Z,49.23
2023-05-05T06:21:20.899Z,48.31
2023-05-05T06:24:25.087Z,47.50
2023-05-05T06:27:27.847Z,46.57
2023-05-05T06:30:30.524Z,45.41
2023-05-05T06:33:33.329Z,44.85
2023-05-05T06:36:35.986Z,44.18
2023-05-05T06:39:40.061Z,43.10
2023-05-05T06:42:42.628Z,42.89
2023-05-05T06:45:46.116Z,42.34
2023-05-05T06:48:48.676Z,42.04
2023-05-05T06:51:51.487Z,42.39
2023-05-05T06:54:55.640Z,42.61
2023-05-05T06:57:58.312Z,42.39
2023-05-05T07:01:00.873Z,42.86
2023-05-05T07:04:03.536Z,42.85
2023-05-05T07:07:06.521Z,42.52
2023-05-05T07:10:11.051Z,42.53
2023-05-05T07:13:13.848Z,42.51
2023-05-05T07:16:16.619Z,42.65
2023-05-05T07:19:19.190Z,42.64
2023-05-05T07:22:21.712Z,42.37
2023-05-05T07:25:25.813Z,42.39
2023-05-05T07:28:28.542Z,42.93
2023-05-05T07:31:31.346Z,42.59
2023-05-05T07:34:34.891Z,42.26
2023-05-05T07:37:37.660Z,42.78
2023-05-05T07:40:42.095Z,42.50
2023-05-05T07:43:44.865Z,42.48
2023-05-05T07:46:47.675Z,42.47
2023-05-05T07:49:50.488Z,43.18
2023-05-05T07:52:59.262Z,43.86
2023-05-05T07:56:14.437Z,44.20
2023-05-05T07:59:16.959Z,44.18
2023-05-05T08:02:20.046Z,45.52
2023-05-05T08:05:22.438Z,47.06
2023-05-05T08:08:26.910Z,49.26
2023-05-05T08:11:31.057Z,51.96
2023-05-05T08:14:33.942Z,53.64
2023-05-05T08:17:50.294Z,54.44
2023-05-05T08:20:53.464Z,55.96
2023-05-05T08:23:56.165Z,56.27
2023-05-05T08:27:00.129Z,54.64
2023-05-05T08:30:03.968Z,54.07
2023-05-05T08:33:06.930Z,54.67
2023-05-05T08:36:09.882Z,53.56
2023-05-05T08:39:12.506Z,53.97
2023-05-05T08:42:28.983Z,52.26
2023-05-05T08:45:36.091Z,50.92
2023-05-05T08:48:41.424Z,49.07
2023-05-05T08:51:45.356Z,48.81
2023-05-05T08:54:52.465Z,47.93
2023-05-05T08:57:58.460Z,48.10
2023-05-05T09:01:01.744Z,47.45
2023-05-05T09:04:05.101Z,46.30
2023-05-05T09:07:08.593Z,46.26
2023-05-05T09:10:12.761Z,46.67
2023-05-05T09:13:17.047Z,45.94
2023-05-05T09:16:20.074Z,45.77
2023-05-05T09:19:23.201Z,44.75
2023-05-05T09:22:33.387Z,44.42
2023-05-05T09:25:36.795Z,44.57
2023-05-05T09:28:52.981Z,43.08
2023-05-05T09:32:05.877Z,43.53
2023-05-05T09:35:09.716Z,42.79
2023-05-05T09:38:12.925Z,42.30
2023-05-05T09:41:15.926Z,41.93
2023-05-05T09:44:34.705Z,40.98
2023-05-05T09:47:37.773Z,39.83
2023-05-05T09:50:44.579Z,39.95
2023-05-05T09:53:47.266Z,38.87
2023-05-05T09:56:50.880Z,36.52
2023-05-05T09:59:59.182Z,34.83
2023-05-05T10:03:04.296Z,33.44
2023-05-05T10:06:07.915Z,33.50
2023-05-05T10:09:10.803Z,33.02
2023-05-05T10:12:13.843Z,33.15
2023-05-05T10:15:18.343Z,32.93
2023-05-05T10:18:23.239Z,34.62
2023-05-05T10:21:26.471Z,36.43
2023-05-05T10:24:36.220Z,36.99
2023-05-05T10:27:44.414Z,36.89
2023-05-05T10:30:50.368Z,36.97
2023-05-05T10:33:55.841Z,37.27
2023-05-05T10:37:00.432Z,36.99
2023-05-05T10:40:03.713Z,36.69
2023-05-05T10:43:07.540Z,36.60
2023-05-05T10:46:13.138Z,36.53
2023-05-05T10:49:23.107Z,39.47
2023-05-05T10:52:30.169Z,41.51
2023-05-05T10:55:37.858Z,40.83
2023-05-05T10:58:58.452Z,41.15
2023-05-05T11:02:19.584Z,40.30
2023-05-05T11:05:22.542Z,38.98
2023-05-05T11:08:28.143Z,39.63
2023-05-05T11:12:03.861Z,41.10
2023-05-05T11:15:37.392Z,42.01
2023-05-05T11:18:44.507Z,41.96
2023-05-05T11:22:01.226Z,40.97
2023-05-05T11:25:48.097Z,38.57
2023-05-05T11:29:04.714Z,35.01
2023-05-05T11:32:14.166Z,33.91
2023-05-05T11:35:18.872Z,33.21
2023-05-05T11:38:25.381Z,30.63
2023-05-05T11:41:39.361Z,29.01
2023-05-05T11:44:42.486Z,28.51
2023-05-05T11:47:45.482Z,27.70
2023-05-05T11:50:49.609Z,26.62
2023-05-05T11:53:52.613Z,27.45
2023-05-05T11:56:56.607Z,27.47
2023-05-05T12:00:01.813Z,26.75
2023-05-05T12:03:05.198Z,27.84
2023-05-05T12:06:09.827Z,25.82
2023-05-05T12:09:16.601Z,26.31
2023-05-05T12:12:20.200Z,26.72
2023-05-05T12:15:30.060Z,26.81
2023-05-05T12:18:32.543Z,26.64
2023-05-05T12:21:36.610Z,27.72
2023-05-05T12:24:39.452Z,28.73
2023-05-05T12:27:42.857Z,28.74
2023-05-05T12:30:57.384Z,30.63
2023-05-05T12:34:00.019Z,31.07
2023-05-05T12:37:04.369Z,31.29
2023-05-05T12:40:08.761Z,31.03
2023-05-05T12:43:11.889Z,31.05
2023-05-05T12:46:15.159Z,30.47
2023-05-05T12:49:18.099Z,30.65
2023-05-05T12:52:22.688Z,28.46
2023-05-05T12:55:37.075Z,23.97
2023-05-05T12:58:49.279Z,21.41
2023-05-05T13:01:53.081Z,21.72
2023-05-05T13:04:56.259Z,20.41
2023-05-05T13:08:00.770Z,21.03
2023-05-05T13:11:03.401Z,19.50
2023-05-05T13:14:07.699Z,15.56
2023-05-05T13:17:11.218Z,15.53
2023-05-05T13:20:14.084Z,16.68
2023-05-05T13:23:19.407Z,14.88
2023-05-05T13:26:22.460Z,15.29
2023-05-05T13:29:29.508Z,14.20
2023-05-05T13:32:33.985Z,16.55
2023-05-05T13:35:36.561Z,18.05
2023-05-05T13:38:41.100Z,16.72
2023-05-05T13:41:44.746Z,20.52
2023-05-05T13:44:47.634Z,20.93
2023-05-05T13:47:51.060Z,17.83
2023-05-05T13:50:53.920Z,16.83
2023-05-05T13:53:57.935Z,13.98
2023-05-05T13:57:00.570Z,12.91
2023-05-05T14:00:04.404Z,12.21
2023-05-05T14:03:07.274Z,15.57
2023-05-05T14:06:10.665Z,19.30
2023-05-05T14:09:14.882Z,23.59
2023-05-05T14:12:17.443Z,26.51
2023-05-05T14:15:20.473Z,28.48
2023-05-05T14:18:23.406Z,29.67
2023-05-05T14:21:26.053Z,30.61
2023-05-05T14:24:30.252Z,31.28
2023-05-05T14:27:32.947Z,32.73
2023-05-05T14:30:35.962Z,32.87
2023-05-05T14:33:38.701Z,33.03
2023-05-05T14:36:41.218Z,33.81
2023-05-05T14:39:45.104Z,33.92
2023-05-05T14:42:49.172Z,34.75
2023-05-05T14:45:52.710Z,35.08
2023-05-05T14:48:55.601Z,35.37
2023-05-05T14:51:58.893Z,35.65
2023-05-05T14:55:03.026Z,35.33
2023-05-05T14:58:05.677Z,35.47
2023-05-05T15:01:08.505Z,36.14
2023-05-05T15:04:11.106Z,36.34
2023-05-05T15:07:13.688Z,36.77
2023-05-05T15:10:21.166Z,36.95
2023-05-05T15:13:24.632Z,37.18
2023-05-05T15:16:27.802Z,37.21
2023-05-05T15:19:30.855Z,38.01
2023-05-05T15:22:33.412Z,38.18
2023-05-05T15:25:37.494Z,38.38
2023-05-05T15:28:40.206Z,38.92
2023-05-05T15:31:43.495Z,39.63
2023-05-05T15:34:47.643Z,39.97
2023-05-05T15:37:51.659Z,40.35
2023-05-05T15:40:55.903Z,40.64
2023-05-05T15:43:58.624Z,41.20
2023-05-05T15:47:01.516Z,41.54
2023-05-05T15:50:04.254Z,41.42
2023-05-05T15:53:06.876Z,42.31
2023-05-05T15:56:11.856Z,44.77
2023-05-05T15:59:14.512Z,46.92
2023-05-05T16:02:17.059Z,50.91
2023-05-05T16:05:22.233Z,55.33
2023-05-05T16:08:25.672Z,56.77
2023-05-05T16:11:29.661Z,60.41
2023-05-05T16:14:32.729Z,62.09
2023-05-05T16:17:35.231Z,64.40
2023-05-05T16:20:37.795Z,67.94
2023-05-05T16:23:40.799Z,69.44
2023-05-05T16:26:44.914Z,71.97
2023-05-05T16:29:47.669Z,72.19
2023-05-05T16:32:51.969Z,73.12
2023-05-05T16:35:54.730Z,74.03
2023-05-05T16:38:57.355Z,76.71
2023-05-05T16:42:02.739Z,77.09
2023-05-05T16:45:06.975Z,78.78
2023-05-05T16:48:09.874Z,79.96
2023-05-05T16:51:12.714Z,80.13
2023-05-05T16:54:15.219Z,80.63
2023-05-05T16:57:19.350Z,82.38
2023-05-05T17:00:22.069Z,82.29
2023-05-05T17:03:24.705Z,81.72
2023-05-05T17:06:27.645Z,80.78
2023-05-05T17:09:30.356Z,74.12
2023-05-05T17:12:34.425Z,73.38
2023-05-05T17:15:37.451Z,73.27
2023-05-05T17:18:40.000Z,74.36
2023-05-05T17:21:43.121Z,74.13
2023-05-05T17:24:45.606Z,74.01
2023-05-05T17:27:49.784Z,74.35
2023-05-05T17:30:52.433Z,72.33
2023-05-05T17:33:54.881Z,74.49
2023-05-05T17:36:58.198Z,73.43
2023-05-05T17:40:00.708Z,72.76
2023-05-05T17:43:04.599Z,71.24
2023-05-05T17:46:07.363Z,70.21
2023-05-05T17:49:10.033Z,70.26
2023-05-05T17:52:12.619Z,70.31
2023-05-05T17:55:15.323Z,70.29
2023-05-05T17:58:19.600Z,69.19
2023-05-05T18:01:22.508Z,68.97
2023-05-05T18:04:25.395Z,70.15
2023-05-05T18:07:28.605Z,68.19
2023-05-05T18:10:31.861Z,70.47
2023-05-05T18:13:35.935Z,71.16
2023-05-05T18:16:38.768Z,72.11
2023-05-05T18:19:46.590Z,73.86
2023-05-05T18:22:52.280Z,75.27
2023-05-05T18:25:55.305Z,74.39
2023-05-05T18:28:59.232Z,75.03
2023-05-05T18:32:01.893Z,76.13
2023-05-05T18:35:04.893Z,77.48
2023-05-05T18:38:07.742Z,79.03
2023-05-05T18:41:10.851Z,79.43
2023-05-05T18:44:14.824Z,80.13
2023-05-05T18:47:17.391Z,79.17
2023-05-05T18:50:20.141Z,79.06
2023-05-05T18:53:22.774Z,79.97
2023-05-05T18:56:25.411Z,78.99
2023-05-05T18:59:29.378Z,77.62
2023-05-05T19:02:32.274Z,75.22
2023-05-05T19:05:34.952Z,73.46
2023-05-05T19:08:37.599Z,73.38
2023-05-05T19:11:41.832Z,73.38
2023-05-05T19:14:46.055Z,74.23
2023-05-05T19:17:48.915Z,75.63
2023-05-05T19:20:51.592Z,76.85
2023-05-05T19:23:54.156Z,76.12
2023-05-05T19:26:56.939Z,77.80
2023-05-05T19:30:01.062Z,77.95
2023-05-05T19:33:03.682Z,78.57
2023-05-05T19:36:06.548Z,78.36
2023-05-05T19:39:09.105Z,78.54
2023-05-05T19:42:11.599Z,78.02
2023-05-05T19:45:16.289Z,78.22
2023-05-05T19:48:19.258Z,79.24
2023-05-05T19:51:22.027Z,79.05
2023-05-05T19:54:25.273Z,80.09
2023-05-05T19:57:28.348Z,79.88
2023-05-05T20:00:32.249Z,80.97
2023-05-05T20:03:34.921Z,80.79
2023-05-05T20:06:37.594Z,81.81
2023-05-05T20:09:40.176Z,81.23
2023-05-05T20:12:48.147Z,79.84
2023-05-05T20:15:52.598Z,77.91
2023-05-05T20:18:55.649Z,75.89
2023-05-05T20:21:58.194Z,74.70
2023-05-05T20:25:00.778Z,74.63
2023-05-05T20:28:03.389Z,76.35
2023-05-05T20:31:07.615Z,74.74
2023-05-05T20:34:10.290Z,74.13
2023-05-05T20:37:13.881Z,75.38
2023-05-05T20:40:16.731Z,73.57
2023-05-05T20:43:19.510Z,73.70
2023-05-05T20:46:23.386Z,74.30
2023-05-05T20:49:26.181Z,74.03
2023-05-05T20:52:28.876Z,73.70
2023-05-05T20:55:31.592Z,73.69
2023-05-05T20:58:34.254Z,72.61
2023-05-05T21:01:38.123Z,73.32
2023-05-05T21:04:40.799Z,72.97
2023-05-05T21:07:44.617Z,73.80
2023-05-05T21:10:47.218Z,73.08
2023-05-05T21:13:49.894Z,73.91
2023-05-05T21:16:53.900Z,75.49
2023-05-05T21:19:56.933Z,76.81
2023-05-05T21:22:59.524Z,78.40
2023-05-05T21:26:03.359Z,78.89
2023-05-05T21:29:06.596Z,79.44
2023-05-05T21:32:12.425Z,79.53
2023-05-05T21:35:15.144Z,78.84
2023-05-05T21:38:17.602Z,78.63
2023-05-05T21:41:20.131Z,77.98
2023-05-05T21:44:22.897Z,77.75
2023-05-05T21:47:26.943Z,76.88
2023-05-05T21:50:29.677Z,77.44
2023-05-05T21:53:32.322Z,77.76
2023-05-05T21:56:35.039Z,78.00
2023-05-05T21:59:37.728Z,76.73
2023-05-05T22:02:41.672Z,77.12
2023-05-05T22:05:44.593Z,77.40
2023-05-05T22:08:47.782Z,77.15
2023-05-05T22:11:50.412Z,77.13
2023-05-05T22:14:52.947Z,77.28
2023-05-05T22:17:57.016Z,77.04
2023-05-05T22:20:59.698Z,76.80
2023-05-05T22:24:02.272Z,75.97
2023-05-05T22:27:05.048Z,75.16
2023-05-05T22:30:09.159Z,75.37
2023-05-05T22:33:13.160Z,75.31
2023-05-05T22:36:15.951Z,75.92
2023-05-05T22:39:19.759Z,76.47
2023-05-05T22:42:22.441Z,76.46
2023-05-05T22:45:25.271Z,76.64
2023-05-05T22:48:29.178Z,76.53
2023-05-05T22:51:31.823Z,77.10
2023-05-05T22:54:34.541Z,78.18
2023-05-05T22:57:37.492Z,79.90
2023-05-05T23:00:40.126Z,79.94
2023-05-05T23:03:44.195Z,80.08
2023-05-05T23:06:47.066Z,80.20
2023-05-05T23:09:49.743Z,80.50
2023-05-05T23:12:52.937Z,80.53
2023-05-05T23:15:55.693Z,80.58
2023-05-05T23:18:59.730Z,80.60
2023-05-05T23:22:02.786Z,80.42
2023-05-05T23:25:05.704Z,80.60
2023-05-05T23:28:08.322Z,80.85
2023-05-05T23:31:10.989Z,81.41
2023-05-05T23:34:14.947Z,81.29
2023-05-05T23:37:17.490Z,81.15
2023-05-05T23:40:20.286Z,82.04
2023-05-05T23:43:22.879Z,81.80
2023-05-05T23:46:25.657Z,81.67
2023-05-05T23:49:29.524Z,82.14
2023-05-05T23:52:32.371Z,82.52
2023-05-05T23:55:35.084Z,82.20
2023-05-05T23:58:37.686Z,82.51
